Time;durP1;ratioP1;P1;durP2;ratioP2;P2;SDS_P1;SDS_P2;PMS_P1;PMS_P2;Temp;Humidity;BMP_temperature;BMP_pressure;BME280_temperature;BME280_humidity;BME280_pressure;Samples;Min_cycle;Max_cycle;Signal;HPM_P1;HPM_P2
2024/01/15 00:00:44;;;;;;;0.20;0.10;;;;;;;-0.33;90.30;99263.38;5045442;28;20518;-53
2024/01/15 00:03:11;;;;;;;0.20;0.10;;;;;;;-0.31;89.27;99262.50;5049481;28;20452;-53
2024/01/15 00:05:38;;;;;;;0.20;0.10;;;;;;;-0.31;89.76;99269.47;5047263;28;20447;-53
2024/01/15 00:08:05;;;;;;;0.20;0.10;;;;;;;-0.26;89.43;99278.19;5052135;28;20457;-53
2024/01/15 00:10:31;;;;;;;0.20;0.20;;;;;;;-0.37;89.24;99278.19;5045036;28;20474;-53
2024/01/15 00:12:57;;;;;;;0.20;0.10;;;;;;;-0.31;90.13;99270.34;5047540;28;20832;-53
2024/01/15 00:15:25;;;;;;;0.20;0.10;;;;;;;-0.26;90.01;99272.09;5044707;28;20447;-52
2024/01/15 00:17:51;;;;;;;0.20;0.10;;;;;;;-0.65;89.96;99266.03;5049986;28;20550;-51
2024/01/15 00:20:17;;;;;;;0.20;0.10;;;;;;;-0.45;90.07;99263.38;5048457;28;20532;-52
2024/01/15 00:22:44;;;;;;;0.20;0.10;;;;;;;-0.35;89.76;99247.72;5050844;28;21007;-52
2024/01/15 00:25:10;;;;;;;0.20;0.10;;;;;;;-0.31;90.05;99238.13;5049268;28;20450;-51
2024/01/15 00:27:37;;;;;;;0.20;0.10;;;;;;;-0.40;89.45;99240.78;5051171;28;20509;-51
2024/01/15 00:30:04;;;;;;;0.20;0.10;;;;;;;-0.48;89.80;99250.34;5050087;28;20518;-52
2024/01/15 00:32:31;;;;;;;2.93;2.80;;;;;;;-0.44;89.80;99246.84;5042920;28;20966;-52
2024/01/15 00:34:58;;;;;;;0.20;0.10;;;;;;;-0.41;90.35;99237.31;5044246;28;20455;-52
2024/01/15 00:37:24;;;;;;;0.20;0.10;;;;;;;-0.34;90.01;99236.41;5055671;28;20453;-52
2024/01/15 00:39:50;;;;;;;0.20;0.10;;;;;;;-0.43;89.62;99240.75;5045306;28;21000;-51
2024/01/15 00:42:17;;;;;;;0.20;0.10;;;;;;;-0.44;89.75;99239.91;5047624;28;20481;-51
2024/01/15 00:44:44;;;;;;;0.20;0.10;;;;;;;-0.33;90.16;99227.69;5042455;28;20485;-52
2024/01/15 00:47:10;;;;;;;0.20;0.10;;;;;;;-0.23;89.85;99231.16;5042728;28;20460;-52
2024/01/15 00:49:37;;;;;;;0.20;0.10;;;;;;;-0.17;89.65;99225.06;5042596;28;20806;-52
2024/01/15 00:52:04;;;;;;;0.20;0.10;;;;;;;-0.01;88.86;99217.16;5048246;28;20483;-52
2024/01/15 00:54:30;;;;;;;0.20;0.10;;;;;;;0.11;89.24;99221.47;5035729;28;20459;-52
2024/01/15 00:56:56;;;;;;;0.20;0.13;;;;;;;0.11;88.57;99220.59;5030639;28;20460;-53
2024/01/15 00:59:23;;;;;;;0.20;0.10;;;;;;;0.09;88.56;99223.22;5039589;28;20567;-53
2024/01/15 01:01:49;;;;;;;0.20;0.10;;;;;;;0.01;87.68;99214.56;5055594;28;20475;-53
2024/01/15 01:04:16;;;;;;;0.20;0.10;;;;;;;0.13;87.94;99211.88;5055104;28;20454;-53
2024/01/15 01:06:42;;;;;;;0.20;0.10;;;;;;;0.11;88.47;99211.03;5049699;28;20452;-53
2024/01/15 01:09:09;;;;;;;0.20;0.20;;;;;;;0.08;88.91;99216.25;5053743;28;20525;-53
2024/01/15 01:11:35;;;;;;;1.17;1.17;;;;;;;0.14;88.32;99216.25;5034884;28;20491;-53
2024/01/15 01:14:02;;;;;;;0.20;0.10;;;;;;;0.11;88.30;99216.25;5051746;28;20458;-53
2024/01/15 01:16:30;;;;;;;0.20;0.10;;;;;;;0.23;88.40;99213.59;5034876;28;20443;-53
2024/01/15 01:19:00;;;;;;;0.20;0.10;;;;;;;0.21;87.67;99207.50;5050598;28;20889;-53
2024/01/15 01:21:27;;;;;;;0.20;0.10;;;;;;;0.21;88.73;99204.88;5046185;28;20467;-53
2024/01/15 01:23:53;;;;;;;0.20;0.10;;;;;;;0.26;87.93;99197.00;5050099;28;20446;-56
2024/01/15 01:26:20;;;;;;;0.20;0.10;;;;;;;0.39;87.27;99198.69;5047383;28;20816;-53
2024/01/15 01:28:46;;;;;;;0.20;0.10;;;;;;;0.22;87.08;99203.13;5053102;28;20451;-49
2024/01/15 01:31:13;;;;;;;0.20;0.10;;;;;;;0.34;87.52;99199.59;5043307;28;20471;-51
2024/01/15 01:33:40;;;;;;;0.20;0.10;;;;;;;0.31;88.10;99182.19;5040629;28;20455;-50
2024/01/15 01:36:08;;;;;;;0.20;0.10;;;;;;;0.29;87.85;99181.34;5053817;28;20825;-49
2024/01/15 01:38:36;;;;;;;0.20;0.10;;;;;;;0.32;87.21;99198.75;5054185;28;20459;-52
2024/01/15 01:41:03;;;;;;;0.20;0.10;;;;;;;0.28;87.38;99208.34;5045681;28;20574;-50
2024/01/15 01:43:29;;;;;;;0.20;0.10;;;;;;;0.31;87.77;99197.88;5050736;28;20459;-51
2024/01/15 01:45:58;;;;;;;0.20;0.10;;;;;;;0.45;87.40;99200.41;5044061;28;20516;-50
2024/01/15 01:48:28;;;;;;;0.20;0.10;;;;;;;0.41;87.23;99217.88;5041361;28;20461;-49
2024/01/15 01:50:58;;;;;;;0.20;0.10;;;;;;;0.08;88.48;99231.94;5044238;28;20474;-49
2024/01/15 01:53:29;;;;;;;0.20;0.10;;;;;;;0.20;89.02;99229.28;5050037;28;20447;-50
2024/01/15 01:55:57;;;;;;;0.20;0.10;;;;;;;0.18;88.06;99223.19;5048403;28;20473;-51
2024/01/15 01:58:23;;;;;;;0.20;0.10;;;;;;;0.24;87.88;99214.44;5041860;28;20447;-50
2024/01/15 02:00:50;;;;;;;0.20;0.10;;;;;;;0.19;88.03;99211.00;5043007;28;20574;-52
2024/01/15 02:03:17;;;;;;;0.20;0.10;;;;;;;0.13;88.86;99205.78;5058546;28;20466;-50
2024/01/15 02:05:44;;;;;;;0.20;0.10;;;;;;;0.07;88.52;99208.44;5050563;28;20455;-50
2024/01/15 02:08:11;;;;;;;0.20;0.10;;;;;;;0.16;88.24;99204.06;5052803;28;20874;-50
2024/01/15 02:10:37;;;;;;;0.20;0.10;;;;;;;0.16;89.02;99206.66;5047463;28;20526;-49
2024/01/15 02:13:04;;;;;;;0.20;0.10;;;;;;;0.12;88.57;99194.47;5052868;28;20476;-50
2024/01/15 02:15:30;;;;;;;0.20;0.10;;;;;;;0.10;88.70;99203.19;5052423;28;20519;-52
2024/01/15 02:18:02;;;;;;;0.20;0.10;;;;;;;0.21;88.95;99212.72;5057570;28;20872;-51
2024/01/15 02:20:30;;;;;;;0.20;0.10;;;;;;;0.24;88.87;99209.22;5043159;28;20483;-50
2024/01/15 02:23:10;;;;;;;0.20;0.10;;;;;;;0.39;88.16;99192.59;5050187;28;20520;-50
2024/01/15 02:25:45;;;;;;;0.20;0.10;;;;;;;0.37;88.18;99194.34;5050936;28;20455;-50
2024/01/15 02:28:14;;;;;;;0.20;0.10;;;;;;;0.40;87.63;99183.88;5047806;28;20939;-50
2024/01/15 02:30:42;;;;;;;0.20;0.10;;;;;;;0.50;87.65;99185.56;5046745;28;20484;-50
2024/01/15 02:33:10;;;;;;;0.20;0.10;;;;;;;0.49;88.18;99189.06;5044885;28;20460;-50
2024/01/15 02:35:37;;;;;;;0.20;0.10;;;;;;;0.46;88.17;99183.84;5059441;28;20538;-51
2024/01/15 02:38:06;;;;;;;0.20;0.10;;;;;;;0.44;87.64;99186.47;5050797;28;20542;-51
2024/01/15 02:40:34;;;;;;;0.20;0.10;;;;;;;0.57;88.02;99184.66;5050143;28;20491;-49
2024/01/15 02:43:00;;;;;;;0.20;0.10;;;;;;;0.49;87.75;99181.22;5049670;28;20459;-50
2024/01/15 02:45:27;;;;;;;0.20;0.10;;;;;;;0.44;87.99;99183.88;5039611;28;20460;-50
2024/01/15 02:47:54;;;;;;;0.20;0.10;;;;;;;0.43;88.92;99182.13;5044079;28;20455;-50
2024/01/15 02:50:20;;;;;;;0.20;0.10;;;;;;;0.32;88.65;99170.88;5041571;28;20909;-51
2024/01/15 02:52:47;;;;;;;0.20;0.10;;;;;;;0.44;88.02;99177.78;5044746;28;20451;-50
2024/01/15 02:55:13;;;;;;;0.20;0.10;;;;;;;0.45;87.83;99171.66;5021182;28;20453;-49
2024/01/15 02:57:40;;;;;;;0.20;0.10;;;;;;;0.33;88.35;99176.97;5051493;28;20480;-50
2024/01/15 03:00:07;;;;;;;0.20;0.10;;;;;;;0.46;88.87;99176.88;5038694;28;20568;-50
2024/01/15 03:02:39;;;;;;;0.20;0.10;;;;;;;0.52;87.80;99181.19;5039258;28;20474;-51
2024/01/15 03:05:08;;;;;;;0.20;0.10;;;;;;;0.52;88.19;99184.69;5039448;28;20478;-50
2024/01/15 03:07:34;;;;;;;0.20;0.10;;;;;;;0.65;88.02;99179.38;5046922;28;20508;-50
2024/01/15 03:10:01;;;;;;;0.20;0.10;;;;;;;0.61;88.22;99175.91;5039023;28;20955;-50
2024/01/15 03:12:28;;;;;;;0.20;0.10;;;;;;;0.61;87.60;99175.91;5043404;28;20541;-51
2024/01/15 03:14:54;;;;;;;0.20;0.10;;;;;;;0.71;87.28;99174.97;5044796;28;20455;-49
2024/01/15 03:17:21;;;;;;;0.20;0.10;;;;;;;0.66;87.60;99183.72;5045008;28;20451;-49
2024/01/15 03:19:47;;;;;;;0.20;0.10;;;;;;;0.78;87.30;99183.63;5038817;28;20848;-50
2024/01/15 03:22:13;;;;;;;0.20;0.10;;;;;;;0.79;86.97;99183.63;5038418;28;20486;-50
2024/01/15 03:24:40;;;;;;;0.20;0.10;;;;;;;0.76;87.66;99186.28;5045083;28;20451;-50
2024/01/15 03:27:06;;;;;;;0.20;0.10;;;;;;;0.56;87.79;99193.38;5050797;28;20524;-51
2024/01/15 03:29:33;;;;;;;0.20;0.10;;;;;;;0.74;87.46;99187.16;5043273;28;20443;-51
2024/01/15 03:31:59;;;;;;;0.20;0.10;;;;;;;0.70;87.68;99188.94;5060234;28;20600;-50
2024/01/15 03:34:26;;;;;;;0.20;0.10;;;;;;;0.77;87.36;99181.91;5048337;28;20450;-51
2024/01/15 03:36:52;;;;;;;0.20;0.10;;;;;;;0.73;87.97;99177.59;5057737;28;20546;-51
2024/01/15 03:39:19;;;;;;;0.20;0.10;;;;;;;0.82;87.07;99164.41;5051172;28;20451;-51
2024/01/15 03:41:45;;;;;;;0.20;0.10;;;;;;;0.72;87.61;99168.88;5046948;28;21019;-51
2024/01/15 03:44:12;;;;;;;0.20;0.10;;;;;;;0.82;87.48;99167.94;5050704;28;20542;-52
2024/01/15 03:46:38;;;;;;;0.20;0.10;;;;;;;0.83;87.04;99161.81;5048853;28;20463;-49
2024/01/15 03:49:04;;;;;;;15.80;14.70;;;;;;;0.84;87.40;99158.31;5051711;28;20541;-50
2024/01/15 03:51:31;;;;;;;0.30;0.10;;;;;;;0.82;86.67;99140.88;5038210;28;20529;-49
2024/01/15 03:53:57;;;;;;;0.20;0.10;;;;;;;0.89;86.69;99134.72;5042694;28;20455;-50
2024/01/15 03:56:24;;;;;;;0.20;0.10;;;;;;;0.91;87.17;99119.88;5037380;28;20454;-50
2024/01/15 03:58:50;;;;;;;0.20;0.10;;;;;;;0.85;87.14;99125.19;5049550;28;20557;-49
2024/01/15 04:01:17;;;;;;;0.20;0.10;;;;;;;0.74;87.76;99130.50;5040018;28;20594;-51
2024/01/15 04:03:43;;;;;;;0.20;0.10;;;;;;;0.71;87.49;99135.75;5046668;28;20447;-50
2024/01/15 04:06:10;;;;;;;0.20;0.10;;;;;;;0.78;88.18;99134.81;5048509;28;20458;-48
2024/01/15 04:08:36;;;;;;;0.20;0.10;;;;;;;0.79;87.37;99133.94;5045535;28;20512;-50
2024/01/15 04:11:03;;;;;;;0.30;0.20;;;;;;;0.72;87.74;99142.72;5041915;28;20479;-51
2024/01/15 04:13:32;;;;;;;0.20;0.10;;;;;;;0.71;87.23;99143.59;5059752;28;20455;-50
2024/01/15 04:16:00;;;;;;;0.20;0.10;;;;;;;0.86;87.36;99132.16;5058880;28;20447;-50
2024/01/15 04:18:27;;;;;;;0.23;0.10;;;;;;;0.89;88.22;99121.66;5048544;28;20519;-52
2024/01/15 04:20:53;;;;;;;0.20;0.10;;;;;;;0.75;87.57;99124.38;5058774;28;20486;-52
2024/01/15 04:23:20;;;;;;;0.20;0.10;;;;;;;0.71;87.40;99119.22;5061809;28;20450;-50
2024/01/15 04:25:50;;;;;;;0.20;0.10;;;;;;;0.50;88.11;99112.38;5049298;28;20446;-49
2024/01/15 04:28:16;;;;;;;0.20;0.10;;;;;;;0.52;88.55;99102.78;5044359;28;20455;-51
2024/01/15 04:30:42;;;;;;;0.20;0.10;;;;;;;0.49;89.40;99101.06;5048277;28;20534;-51
2024/01/15 04:33:09;;;;;;;0.20;0.10;;;;;;;0.44;89.31;99101.97;5044983;28;20459;-50
2024/01/15 04:35:37;;;;;;;0.20;0.10;;;;;;;0.44;89.40;99109.81;5041751;28;20943;-50
2024/01/15 04:38:03;;;;;;;0.20;0.13;;;;;;;0.38;90.35;99115.06;5054869;28;20932;-50
2024/01/15 04:40:30;;;;;;;0.20;0.10;;;;;;;0.35;89.47;99121.19;5042408;28;20489;-50
2024/01/15 04:42:56;;;;;;;0.20;0.10;;;;;;;0.39;90.42;99114.19;5054253;28;20465;-50
2024/01/15 04:45:28;;;;;;;0.20;0.10;;;;;;;0.43;89.82;99122.03;5041089;28;20453;-51
2024/01/15 04:47:56;;;;;;;0.20;0.10;;;;;;;0.59;89.32;99118.41;5042638;28;20450;-49
2024/01/15 04:50:23;;;;;;;0.20;0.10;;;;;;;0.35;89.06;99115.09;5047502;28;20544;-51
2024/01/15 04:52:50;;;;;;;0.20;0.10;;;;;;;0.37;90.29;99111.59;5046479;28;20451;-50
2024/01/15 04:55:16;;;;;;;0.20;0.10;;;;;;;0.27;90.59;99104.69;5040664;28;20455;-51
2024/01/15 04:57:43;;;;;;;0.20;0.10;;;;;;;0.13;90.64;99102.16;5041396;28;20455;-50
2024/01/15 05:00:12;;;;;;;0.20;0.10;;;;;;;0.19;91.22;99104.75;5047856;28;20487;-50
2024/01/15 05:02:38;;;;;;;0.20;0.10;;;;;;;0.11;91.09;99101.31;5047591;28;20446;-50
2024/01/15 05:05:05;;;;;;;0.20;0.10;;;;;;;0.30;90.53;99102.06;5040412;28;20821;-50
2024/01/15 05:07:31;;;;;;;0.20;0.10;;;;;;;-0.02;91.21;99092.66;5049535;28;20451;-50
2024/01/15 05:09:58;;;;;;;0.20;0.10;;;;;;;-0.01;92.35;99096.16;5054339;28;20958;-49
2024/01/15 05:12:24;;;;;;;0.20;0.10;;;;;;;0.03;92.03;99102.25;5045313;28;20569;-49
2024/01/15 05:14:51;;;;;;;0.20;0.10;;;;;;;-0.08;92.36;99091.84;5047344;28;20447;-49
2024/01/15 05:17:17;;;;;;;0.20;0.10;;;;;;;-0.04;92.73;99086.59;5047619;28;20451;-50
2024/01/15 05:19:44;;;;;;;0.20;0.10;;;;;;;0.08;92.22;99085.66;5046997;28;20456;-50
2024/01/15 05:22:11;;;;;;;0.20;0.10;;;;;;;0.18;91.73;99084.72;5047142;28;20470;-52
2024/01/15 05:24:37;;;;;;;0.20;0.10;;;;;;;0.25;91.13;99089.03;5040199;28;20458;-52
2024/01/15 05:27:04;;;;;;;0.20;0.10;;;;;;;0.46;90.85;99089.75;5040288;28;20467;-49
2024/01/15 05:29:30;;;;;;;0.20;0.10;;;;;;;0.65;89.47;99093.97;5040450;28;20486;-50
2024/01/15 05:31:56;;;;;;;0.20;0.10;;;;;;;0.59;89.81;99094.03;5039953;28;21040;-52
2024/01/15 05:34:27;;;;;;;0.20;0.10;;;;;;;0.60;89.77;99098.38;5046348;28;20925;-51
2024/01/15 05:36:54;;;;;;;0.20;0.10;;;;;;;0.41;89.96;99088.91;5048385;28;20524;-51
2024/01/15 05:39:20;;;;;;;0.20;0.10;;;;;;;0.45;90.22;99094.13;5053191;28;20450;-50
2024/01/15 05:41:49;;;;;;;0.20;0.10;;;;;;;0.85;89.63;99096.41;5044703;28;20571;-50
2024/01/15 05:44:16;;;;;;;0.20;0.10;;;;;;;0.71;89.32;99104.38;5044203;28;20812;-51
2024/01/15 05:46:42;;;;;;;0.20;0.10;;;;;;;0.70;89.48;99099.16;5046986;28;20451;-51
2024/01/15 05:49:08;;;;;;;0.20;0.10;;;;;;;0.58;89.09;99105.34;5042859;28;20457;-50
2024/01/15 05:51:35;;;;;;;0.20;0.10;;;;;;;0.52;89.40;99102.78;5039713;28;20464;-50
2024/01/15 05:54:02;;;;;;;0.20;0.10;;;;;;;0.43;89.50;99097.63;5043854;28;20455;-51
2024/01/15 05:56:28;;;;;;;0.20;0.10;;;;;;;0.38;90.27;99102.00;5046872;28;20478;-50
2024/01/15 05:58:54;;;;;;;0.20;0.10;;;;;;;0.65;90.42;99104.41;5042847;28;20547;-50
2024/01/15 06:01:21;;;;;;;0.20;0.10;;;;;;;0.63;90.18;99093.09;5039829;28;20502;-50
2024/01/15 06:03:47;;;;;;;0.20;0.10;;;;;;;0.51;89.83;99091.44;5042958;28;20462;-51
2024/01/15 06:06:14;;;;;;;0.20;0.10;;;;;;;0.69;89.56;99080.00;5046211;28;20497;-50
2024/01/15 06:08:41;;;;;;;0.20;0.10;;;;;;;0.64;89.32;99073.06;5051339;28;20455;-50
2024/01/15 06:11:08;;;;;;;0.20;0.10;;;;;;;0.74;89.63;99075.59;5039030;28;20513;-51
2024/01/15 06:13:34;;;;;;;0.20;0.10;;;;;;;0.72;89.87;99072.13;5053071;28;20457;-50
2024/01/15 06:16:00;;;;;;;0.20;0.10;;;;;;;0.73;89.99;99071.25;5040200;28;20482;-51
2024/01/15 06:18:27;;;;;;;0.20;0.10;;;;;;;0.69;90.30;99056.47;5042948;28;20487;-50
2024/01/15 06:20:54;;;;;;;0.20;0.10;;;;;;;0.75;90.61;99059.00;5046018;28;20970;-50
2024/01/15 06:23:20;;;;;;;0.20;0.10;;;;;;;0.78;90.67;99058.13;5043859;28;20447;-50
2024/01/15 06:25:47;;;;;;;0.20;0.10;;;;;;;0.91;89.82;99048.41;5040008;28;20451;-50
2024/01/15 06:28:13;;;;;;;0.20;0.10;;;;;;;0.83;89.99;99054.59;5041476;28;20994;-50
2024/01/15 06:30:39;;;;;;;0.20;0.10;;;;;;;0.77;90.36;99054.63;5045597;28;20551;-50
2024/01/15 06:33:06;;;;;;;0.20;0.10;;;;;;;0.82;90.39;99060.69;5043425;28;20447;-51
2024/01/15 06:35:34;;;;;;;0.20;0.10;;;;;;;0.74;90.65;99059.03;5038790;28;20541;-49
2024/01/15 06:38:00;;;;;;;0.20;0.10;;;;;;;0.71;91.28;99052.09;5052323;28;20450;-51
2024/01/15 06:40:27;;;;;;;0.20;0.10;;;;;;;0.66;91.58;99058.22;5034269;28;20498;-51
2024/01/15 06:42:53;;;;;;;0.70;0.70;;;;;;;0.76;92.18;99062.50;5047591;28;20463;-50
2024/01/15 06:45:20;;;;;;;0.20;0.10;;;;;;;0.80;90.77;99067.66;5039237;28;20458;-51
2024/01/15 06:47:46;;;;;;;0.20;0.10;;;;;;;0.79;91.00;99063.31;5040884;28;20502;-52
2024/01/15 06:50:13;;;;;;;0.20;0.10;;;;;;;0.80;91.61;99062.44;5045478;28;20455;-51
2024/01/15 06:52:39;;;;;;;0.20;0.10;;;;;;;0.80;90.49;99067.66;5044219;28;20454;-51
2024/01/15 06:55:06;;;;;;;0.20;0.10;;;;;;;0.93;90.71;99063.19;5038898;28;20453;-50
2024/01/15 06:57:32;;;;;;;0.20;0.10;;;;;;;0.79;91.42;99068.56;5040851;28;20456;-52
2024/01/15 06:59:59;;;;;;;0.20;0.10;;;;;;;0.80;91.61;99057.22;5045035;28;20897;-50
2024/01/15 07:02:26;;;;;;;0.30;0.10;;;;;;;0.78;90.99;99066.81;5043454;28;20524;-51
2024/01/15 07:04:53;;;;;;;0.20;0.10;;;;;;;0.95;91.31;99053.56;5038287;28;20478;-51
2024/01/15 07:07:19;;;;;;;0.20;0.10;;;;;;;0.74;91.91;99057.28;5047567;28;20455;-52
2024/01/15 07:09:46;;;;;;;0.20;0.10;;;;;;;1.09;91.43;99058.66;5046865;28;20455;-51
2024/01/15 07:12:12;;;;;;;0.20;0.10;;;;;;;1.09;91.83;99053.44;5043281;28;20478;-51
2024/01/15 07:14:39;;;;;;;0.20;0.10;;;;;;;1.11;90.66;99068.25;5046850;28;20489;-51
2024/01/15 07:17:06;;;;;;;0.20;0.10;;;;;;;1.17;91.51;99064.69;5043487;28;20454;-51
2024/01/15 07:19:32;;;;;;;0.20;0.10;;;;;;;1.02;92.26;99060.50;5038692;28;20459;-52
2024/01/15 07:21:59;;;;;;;0.20;0.10;;;;;;;1.10;92.63;99052.59;5040039;28;20560;-51
2024/01/15 07:24:26;;;;;;;0.20;0.10;;;;;;;1.06;92.37;99053.47;5045132;28;20452;-51
2024/01/15 07:26:52;;;;;;;0.20;0.10;;;;;;;1.03;92.12;99050.91;5045175;28;20455;-53
2024/01/15 07:29:19;;;;;;;0.20;0.10;;;;;;;1.06;91.66;99046.50;5046147;28;20452;-53
2024/01/15 07:31:49;;;;;;;0.20;0.10;;;;;;;0.99;91.43;99043.97;5027838;28;20841;-54
2024/01/15 07:34:17;;;;;;;3.83;3.60;;;;;;;1.07;92.29;99048.22;5039338;28;20497;-53
2024/01/15 07:36:44;;;;;;;0.20;0.10;;;;;;;0.83;92.26;99049.34;5052772;28;20453;-53
2024/01/15 07:39:11;;;;;;;0.20;0.10;;;;;;;1.02;91.41;99055.25;5045022;28;20498;-53
2024/01/15 07:41:38;;;;;;;0.20;0.10;;;;;;;1.12;91.38;99049.06;5046157;28;20540;-53
2024/01/15 07:44:05;;;;;;;0.20;0.10;;;;;;;1.04;91.36;99039.53;5045706;28;20448;-53
2024/01/15 07:46:31;;;;;;;0.20;0.10;;;;;;;1.04;91.07;99052.63;5046625;28;20454;-53
2024/01/15 07:48:58;;;;;;;3.90;3.63;;;;;;;1.05;92.19;99052.59;5044569;28;20551;-53
2024/01/15 07:51:25;;;;;;;0.20;0.10;;;;;;;1.16;90.85;99055.13;5045507;28;20481;-54
2024/01/15 07:53:53;;;;;;;0.20;0.10;;;;;;;1.09;91.14;99056.91;5035532;28;20443;-53
2024/01/15 07:56:21;;;;;;;0.20;0.10;;;;;;;1.10;91.30;99068.28;5038441;28;20458;-53
2024/01/15 07:58:47;;;;;;;0.20;0.10;;;;;;;1.04;90.72;99056.09;5055882;28;20542;-53
2024/01/15 08:01:14;;;;;;;0.20;0.10;;;;;;;1.03;91.49;99067.47;5040519;28;20491;-53
2024/01/15 08:03:40;;;;;;;0.20;0.10;;;;;;;0.93;90.82;99068.44;5036294;28;20992;-53
2024/01/15 08:06:09;;;;;;;0.20;0.10;;;;;;;0.95;91.54;99061.41;5038661;28;20952;-53
2024/01/15 08:08:37;;;;;;;0.20;0.10;;;;;;;0.98;91.44;99061.41;5055605;28;20461;-53
2024/01/15 08:11:03;;;;;;;0.20;0.10;;;;;;;0.99;91.67;99059.66;5052461;28;20507;-54
2024/01/15 08:13:30;;;;;;;0.20;0.10;;;;;;;1.08;91.93;99051.69;5049735;28;20526;-53
2024/01/15 08:15:57;;;;;;;0.23;0.17;;;;;;;1.16;90.90;99052.50;5042523;28;20455;-53
2024/01/15 08:18:24;;;;;;;0.20;0.10;;;;;;;0.95;90.59;99047.47;5045519;28;21011;-53
2024/01/15 08:20:51;;;;;;;0.20;0.10;;;;;;;0.78;91.71;99047.66;5048264;28;20491;-53
2024/01/15 08:23:18;;;;;;;0.20;0.10;;;;;;;0.88;92.24;99044.94;5045414;28;20447;-53
2024/01/15 08:25:46;;;;;;;0.20;0.10;;;;;;;0.93;92.11;99044.88;5037904;28;20918;-53
2024/01/15 08:28:12;;;;;;;0.30;0.20;;;;;;;0.99;91.60;99042.22;5035670;28;20458;-53
2024/01/15 08:30:38;;;;;;;0.20;0.10;;;;;;;1.04;91.73;99043.03;5049374;28;20484;-53
2024/01/15 08:33:05;;;;;;;0.20;0.10;;;;;;;1.17;91.13;99026.31;5036278;28;20538;-53
2024/01/15 08:35:44;;;;;;;0.20;0.10;;;;;;;1.35;91.67;99029.59;5055114;28;20530;-53
2024/01/15 08:38:10;;;;;;;0.20;0.10;;;;;;;1.34;91.47;99018.25;5055776;28;20454;-53
2024/01/15 08:40:36;;;;;;;0.20;0.10;;;;;;;1.24;91.68;99019.28;5036442;28;20481;-53
2024/01/15 08:43:03;;;;;;;0.20;0.10;;;;;;;1.48;90.63;99016.34;5053177;28;20454;-53
2024/01/15 08:45:30;;;;;;;0.20;0.10;;;;;;;1.54;90.34;99025.88;5049293;28;20522;-53
2024/01/15 08:47:58;;;;;;;0.20;0.10;;;;;;;1.46;90.25;99025.97;5048517;28;20542;-53
2024/01/15 08:50:24;;;;;;;0.20;0.10;;;;;;;1.83;89.72;99022.88;5048886;28;20865;-53
2024/01/15 08:52:51;;;;;;;0.20;0.10;;;;;;;1.52;89.11;99027.66;5034744;28;20454;-53
2024/01/15 08:55:18;;;;;;;0.20;0.10;;;;;;;1.85;89.25;99036.81;5041024;28;20839;-53
2024/01/15 08:57:44;;;;;;;0.20;0.10;;;;;;;1.80;88.61;99048.25;5041251;28;20451;-53
2024/01/15 09:00:11;;;;;;;0.20;0.10;;;;;;;1.79;89.46;99060.47;5042199;28;20484;-53
2024/01/15 09:02:38;;;;;;;0.20;0.10;;;;;;;1.75;88.98;99056.16;5041426;28;20896;-53
2024/01/15 09:05:05;;;;;;;0.20;0.10;;;;;;;1.95;88.99;99051.53;5047307;28;20458;-54
2024/01/15 09:07:32;;;;;;;0.20;0.10;;;;;;;1.91;88.74;99046.31;5049663;28;20504;-53
2024/01/15 09:09:59;;;;;;;0.20;0.10;;;;;;;2.12;88.33;99046.03;5047033;28;20454;-54
2024/01/15 09:12:26;;;;;;;0.20;0.10;;;;;;;2.00;88.08;99046.19;5049147;28;20558;-54
2024/01/15 09:14:53;;;;;;;1.03;1.00;;;;;;;1.65;88.77;99041.47;5047029;28;20827;-53
2024/01/15 09:17:21;;;;;;;0.20;0.10;;;;;;;1.82;89.08;99043.84;5036525;28;20535;-53
2024/01/15 09:19:48;;;;;;;0.20;0.10;;;;;;;1.85;88.69;99049.03;5054655;28;20496;-54
2024/01/15 09:22:18;;;;;;;0.30;0.10;;;;;;;1.90;88.89;99040.22;5023352;28;20491;-53
2024/01/15 09:24:45;;;;;;;0.20;0.10;;;;;;;2.14;87.60;99046.00;5045674;28;20452;-53
2024/01/15 09:27:11;;;;;;;0.20;0.10;;;;;;;2.08;88.31;99052.22;5037528;28;20447;-53
2024/01/15 09:29:39;;;;;;;0.20;0.10;;;;;;;2.05;88.11;99055.72;5045216;28;20455;-53
2024/01/15 09:32:07;;;;;;;0.20;0.10;;;;;;;2.15;87.57;99053.84;5050675;28;20471;-53
2024/01/15 09:34:34;;;;;;;0.20;0.10;;;;;;;2.14;87.72;99054.72;5045618;28;20543;-53
2024/01/15 09:37:02;;;;;;;0.20;0.10;;;;;;;2.10;87.77;99060.06;5051821;28;20446;-53
2024/01/15 09:39:29;;;;;;;0.20;0.10;;;;;;;2.01;87.93;99061.03;5044414;28;20870;-53
2024/01/15 09:41:56;;;;;;;0.20;0.10;;;;;;;2.07;87.97;99060.97;5038880;28;20519;-53
2024/01/15 09:44:22;;;;;;;0.20;0.10;;;;;;;2.11;88.29;99061.78;5034532;28;20475;-53
2024/01/15 09:46:50;;;;;;;0.20;0.10;;;;;;;2.03;88.38;99054.00;5048370;28;20452;-53
2024/01/15 09:49:17;;;;;;;0.20;0.10;;;;;;;1.98;88.15;99043.59;5044443;28;20451;-53
2024/01/15 09:51:44;;;;;;;0.20;0.10;;;;;;;2.09;88.62;99046.09;5036615;28;20471;-53
2024/01/15 09:54:17;;;;;;;0.20;0.10;;;;;;;2.08;88.56;99042.59;5029645;28;20443;-53
2024/01/15 09:56:47;;;;;;;0.20;0.10;;;;;;;2.20;88.22;99053.78;5035375;28;20482;-53
2024/01/15 09:59:16;;;;;;;0.20;0.10;;;;;;;2.17;88.32;99038.94;5046950;28;20447;-54
2024/01/15 10:01:44;;;;;;;0.20;0.10;;;;;;;2.34;87.64;99041.34;5041963;28;20544;-54
2024/01/15 10:04:13;;;;;;;0.20;0.10;;;;;;;2.18;88.32;99045.06;5042260;28;20452;-53
2024/01/15 10:06:45;;;;;;;0.20;0.10;;;;;;;2.14;88.60;99043.38;5042033;28;20447;-53
2024/01/15 10:09:14;;;;;;;0.20;0.10;;;;;;;2.17;88.43;99036.34;5041471;28;20447;-54
2024/01/15 10:11:42;;;;;;;0.20;0.10;;;;;;;2.26;88.78;99038.81;5046413;28;20485;-54
2024/01/15 10:14:12;;;;;;;0.20;0.10;;;;;;;2.20;89.21;99036.31;5052913;28;20969;-53
2024/01/15 10:16:39;;;;;;;0.20;0.10;;;;;;;2.43;88.55;99033.31;5034086;28;20452;-53
2024/01/15 10:19:06;;;;;;;0.20;0.10;;;;;;;2.17;89.03;99038.09;5037606;28;20451;-54
2024/01/15 10:21:36;;;;;;;0.20;0.10;;;;;;;2.10;89.00;99036.47;5036051;28;20490;-54
2024/01/15 10:24:03;;;;;;;0.20;0.10;;;;;;;2.26;88.89;99033.59;5053784;28;20458;-53
2024/01/15 10:26:31;;;;;;;0.20;0.10;;;;;;;2.29;89.12;99038.78;5044610;28;20522;-53
2024/01/15 10:29:01;;;;;;;0.20;0.10;;;;;;;2.31;88.72;99037.00;5033505;28;20455;-53
2024/01/15 10:31:28;;;;;;;0.20;0.10;;;;;;;2.28;88.94;99038.78;5033761;28;20472;-53
2024/01/15 10:34:12;;;;;;;0.20;0.10;;;;;;;2.51;88.48;99027.94;5052803;28;20457;-53
2024/01/15 10:36:41;;;;;;;0.20;0.10;;;;;;;2.37;88.41;99017.69;5054948;28;20829;-61
2024/01/15 10:39:08;;;;;;;0.20;0.10;;;;;;;2.37;88.21;99012.44;5042054;28;20450;-53
2024/01/15 10:41:34;;;;;;;0.20;0.10;;;;;;;2.43;88.58;99014.94;5045273;28;20487;-54
2024/01/15 10:44:01;;;;;;;0.20;0.10;;;;;;;2.52;87.31;99008.69;5047771;28;20451;-54
2024/01/15 10:46:28;;;;;;;0.20;0.10;;;;;;;2.29;87.33;99003.81;5030009;28;20478;-53
2024/01/15 10:48:55;;;;;;;0.20;0.10;;;;;;;2.51;87.39;99001.72;5040708;28;20497;-57
2024/01/15 10:51:22;;;;;;;0.20;0.10;;;;;;;2.49;87.35;99000.88;5053224;28;20539;-53
2024/01/15 10:53:49;;;;;;;0.20;0.10;;;;;;;2.66;86.78;98990.97;5045813;28;20448;-53
2024/01/15 10:56:15;;;;;;;0.20;0.10;;;;;;;2.51;86.79;98991.25;5033908;28;20949;-53
2024/01/15 10:58:42;;;;;;;0.20;0.10;;;;;;;2.45;86.38;98986.94;5033659;28;20452;-54
2024/01/15 11:01:09;;;;;;;0.20;0.10;;;;;;;2.26;86.82;98985.53;5046254;28;20589;-53
2024/01/15 11:03:36;;;;;;;0.20;0.10;;;;;;;2.55;86.13;98988.53;5040630;28;20482;-53
2024/01/15 11:06:03;;;;;;;0.20;0.10;;;;;;;2.60;86.04;98985.81;5039351;28;20443;-53
2024/01/15 11:08:31;;;;;;;0.20;0.10;;;;;;;2.65;85.51;98984.84;5044467;28;20447;-53
2024/01/15 11:10:57;;;;;;;0.20;0.10;;;;;;;2.75;85.05;98982.94;5045634;28;20851;-53
2024/01/15 11:13:30;;;;;;;0.20;0.10;;;;;;;2.63;85.85;98985.78;5045460;28;20504;-54
2024/01/15 11:16:01;;;;;;;0.20;0.10;;;;;;;2.81;84.69;98974.94;5036887;28;20455;-54
2024/01/15 11:18:30;;;;;;;0.20;0.10;;;;;;;2.87;84.40;98976.56;5042479;28;20450;-53
2024/01/15 11:21:18;;;;;;;0.20;0.10;;;;;;;3.07;84.80;98970.97;5034939;28;20933;-53
2024/01/15 11:23:46;;;;;;;0.20;0.10;;;;;;;3.11;84.23;98973.47;5046990;28;20451;-54
2024/01/15 11:26:45;;;;;;;0.20;0.10;;;;;;;3.32;83.61;98966.94;5040707;28;20868;-53
2024/01/15 11:29:26;;;;;;;0.20;0.10;;;;;;;3.30;83.56;98967.88;5051083;28;20443;-53
2024/01/15 11:31:58;;;;;;;0.20;0.10;;;;;;;3.53;83.04;98974.34;5033752;28;20467;-53
2024/01/15 11:34:50;;;;;;;0.20;0.10;;;;;;;3.57;82.17;98967.28;5037742;28;20497;-53
2024/01/15 11:37:18;;;;;;;0.20;0.10;;;;;;;3.54;82.12;98972.59;5033576;28;20443;-54
2024/01/15 11:39:48;;;;;;;0.30;0.20;;;;;;;3.40;82.48;98970.25;5049396;28;20963;-53
2024/01/15 11:42:15;;;;;;;0.20;0.10;;;;;;;3.47;82.99;98958.75;5057878;28;20501;-53